sensor_id;sensor_type;location;lat;lon;timestamp;pressure;altitude;pressure_sealevel;temperature;humidity
22743;BME280;11538;48.884;8.696;2022-08-11T00:01:59;99149.78;;;19.62;45.30
22743;BME280;11538;48.884;8.696;2022-08-11T00:04:33;99148.38;;;19.68;45.02
22743;BME280;11538;48.884;8.696;2022-08-11T00:07:03;99148.22;;;19.77;44.96
22743;BME280;11538;48.884;8.696;2022-08-11T00:09:35;99153.47;;;19.82;44.82
22743;BME280;11538;48.884;8.696;2022-08-11T00:12:16;99147.22;;;19.98;44.59
22743;BME280;11538;48.884;8.696;2022-08-11T00:14:45;99150.78;;;19.98;44.68
22743;BME280;11538;48.884;8.696;2022-08-11T00:17:14;99159.56;;;19.76;45.28
22743;BME280;11538;48.884;8.696;2022-08-11T00:19:47;99153.94;;;19.56;45.65
22743;BME280;11538;48.884;8.696;2022-08-11T00:22:38;99155.72;;;19.64;45.31
22743;BME280;11538;48.884;8.696;2022-08-11T00:25:19;99155.78;;;19.80;44.77
22743;BME280;11538;48.884;8.696;2022-08-11T00:27:47;99156.78;;;19.88;44.73
22743;BME280;11538;48.884;8.696;2022-08-11T00:30:15;99156.78;;;19.88;44.55
22743;BME280;11538;48.884;8.696;2022-08-11T00:32:53;99152.38;;;19.71;44.96
22743;BME280;11538;48.884;8.696;2022-08-11T00:35:26;99157.25;;;19.62;45.23
22743;BME280;11538;48.884;8.696;2022-08-11T00:38:15;99160.19;;;19.69;45.58
22743;BME280;11538;48.884;8.696;2022-08-11T01:02:16;99151.97;;;18.99;47.01
22743;BME280;11538;48.884;8.696;2022-08-11T01:05:44;99147.03;;;19.05;46.92
22743;BME280;11538;48.884;8.696;2022-08-11T01:08:39;99151.63;;;19.01;47.07
22743;BME280;11538;48.884;8.696;2022-08-11T01:14:45;99154.72;;;18.99;47.13
22743;BME280;11538;48.884;8.696;2022-08-11T01:18:10;99149.28;;;19.16;46.94
22743;BME280;11538;48.884;8.696;2022-08-11T01:46:17;99156.81;;;19.31;47.80
22743;BME280;11538;48.884;8.696;2022-08-11T01:49:19;99147.50;;;19.36;47.30
22743;BME280;11538;48.884;8.696;2022-08-11T01:52:21;99150.00;;;19.41;47.72
22743;BME280;11538;48.884;8.696;2022-08-11T01:55:24;99159.81;;;19.26;48.53
22743;BME280;11538;48.884;8.696;2022-08-11T01:58:35;99146.19;;;19.17;48.88
22743;BME280;11538;48.884;8.696;2022-08-11T02:01:20;99142.97;;;19.15;48.20
22743;BME280;11538;48.884;8.696;2022-08-11T02:12:26;99145.06;;;19.06;48.85
22743;BME280;11538;48.884;8.696;2022-08-11T02:17:59;99142.00;;;19.07;48.67
22743;BME280;11538;48.884;8.696;2022-08-11T02:20:42;99136.97;;;18.97;48.58
22743;BME280;11538;48.884;8.696;2022-08-11T02:23:51;99132.97;;;18.82;48.79
22743;BME280;11538;48.884;8.696;2022-08-11T02:26:52;99142.25;;;18.77;48.38
22743;BME280;11538;48.884;8.696;2022-08-11T02:29:34;99147.53;;;18.82;48.81
22743;BME280;11538;48.884;8.696;2022-08-11T02:35:34;99149.25;;;18.75;49.43
22743;BME280;11538;48.884;8.696;2022-08-11T02:38:44;99144.31;;;18.80;49.48
22743;BME280;11538;48.884;8.696;2022-08-11T02:41:25;99149.47;;;18.69;50.33
22743;BME280;11538;48.884;8.696;2022-08-11T02:44:45;99146.63;;;18.53;51.14
22743;BME280;11538;48.884;8.696;2022-08-11T02:52:54;99142.72;;;18.54;50.10
22743;BME280;11538;48.884;8.696;2022-08-11T02:55:53;99138.84;;;18.55;51.01
22743;BME280;11538;48.884;8.696;2022-08-11T03:01:17;99136.44;;;18.29;51.23
22743;BME280;11538;48.884;8.696;2022-08-11T03:04:17;99140.44;;;18.07;51.29
22743;BME280;11538;48.884;8.696;2022-08-11T03:06:58;99143.78;;;18.12;51.08
22743;BME280;11538;48.884;8.696;2022-08-11T03:10:40;99147.66;;;18.11;50.64
22743;BME280;11538;48.884;8.696;2022-08-11T03:13:21;99146.75;;;18.07;51.69
22743;BME280;11538;48.884;8.696;2022-08-11T03:22:33;99152.50;;;17.93;51.33
22743;BME280;11538;48.884;8.696;2022-08-11T03:25:31;99150.91;;;17.92;51.38
22743;BME280;11538;48.884;8.696;2022-08-11T03:28:31;99151.56;;;17.77;51.47
22743;BME280;11538;48.884;8.696;2022-08-11T03:34:08;99161.00;;;17.67;52.04
22743;BME280;11538;48.884;8.696;2022-08-11T03:40:15;99157.00;;;17.64;51.93
22743;BME280;11538;48.884;8.696;2022-08-11T03:43:23;99161.72;;;17.43;52.42
22743;BME280;11538;48.884;8.696;2022-08-11T03:46:13;99163.38;;;17.56;52.38
22743;BME280;11538;48.884;8.696;2022-08-11T03:49:24;99160.81;;;17.38;52.72
22743;BME280;11538;48.884;8.696;2022-08-11T03:52:18;99167.84;;;17.27;52.98
22743;BME280;11538;48.884;8.696;2022-08-11T03:55:26;99170.94;;;17.17;53.43
22743;BME280;11538;48.884;8.696;2022-08-11T04:03:51;99159.03;;;17.55;52.25
22743;BME280;11538;48.884;8.696;2022-08-11T04:12:45;99167.00;;;17.05;53.70
22743;BME280;11538;48.884;8.696;2022-08-11T04:21:56;99172.13;;;16.86;54.32
22743;BME280;11538;48.884;8.696;2022-08-11T04:30:27;99171.03;;;17.29;53.13
22743;BME280;11538;48.884;8.696;2022-08-11T04:36:10;99168.41;;;17.33;53.16
22743;BME280;11538;48.884;8.696;2022-08-11T04:39:14;99171.25;;;17.24;53.67
22743;BME280;11538;48.884;8.696;2022-08-11T04:52:55;99167.97;;;17.31;53.31
22743;BME280;11538;48.884;8.696;2022-08-11T04:56:05;99170.88;;;17.04;53.93
22743;BME280;11538;48.884;8.696;2022-08-11T05:14:51;99172.56;;;17.18;53.60
22743;BME280;11538;48.884;8.696;2022-08-11T05:18:01;99179.47;;;16.94;54.40
22743;BME280;11538;48.884;8.696;2022-08-11T05:20:55;99182.31;;;17.06;54.25
22743;BME280;11538;48.884;8.696;2022-08-11T05:23:50;99183.00;;;17.24;53.95
22743;BME280;11538;48.884;8.696;2022-08-11T05:26:50;99178.03;;;17.39;53.20
22743;BME280;11538;48.884;8.696;2022-08-11T05:29:47;99178.19;;;17.43;53.06
22743;BME280;11538;48.884;8.696;2022-08-11T05:32:42;99186.41;;;17.21;53.53
22743;BME280;11538;48.884;8.696;2022-08-11T05:35:45;99179.19;;;17.17;54.05
22743;BME280;11538;48.884;8.696;2022-08-11T05:38:33;99177.63;;;17.49;53.16
22743;BME280;11538;48.884;8.696;2022-08-11T05:41:26;99173.00;;;17.62;52.99
22743;BME280;11538;48.884;8.696;2022-08-11T05:44:19;99167.34;;;17.80;52.55
22743;BME280;11538;48.884;8.696;2022-08-11T05:47:06;99175.81;;;17.87;52.36
22743;BME280;11538;48.884;8.696;2022-08-11T05:49:55;99165.75;;;17.91;52.12
22743;BME280;11538;48.884;8.696;2022-08-11T05:52:45;99176.19;;;17.98;52.11
22743;BME280;11538;48.884;8.696;2022-08-11T05:55:41;99182.53;;;18.11;52.04
22743;BME280;11538;48.884;8.696;2022-08-11T05:58:37;99178.19;;;18.22;51.81
22743;BME280;11538;48.884;8.696;2022-08-11T06:01:13;99181.84;;;18.26;51.78
22743;BME280;11538;48.884;8.696;2022-08-11T06:03:44;99179.56;;;18.41;51.63
22743;BME280;11538;48.884;8.696;2022-08-11T06:06:30;99177.53;;;18.50;51.31
22743;BME280;11538;48.884;8.696;2022-08-11T06:08:59;99174.91;;;18.54;51.25
22743;BME280;11538;48.884;8.696;2022-08-11T06:11:27;99174.78;;;18.63;50.96
22743;BME280;11538;48.884;8.696;2022-08-11T06:14:11;99175.72;;;18.67;51.08
22743;BME280;11538;48.884;8.696;2022-08-11T06:16:42;99172.13;;;18.79;51.01
22743;BME280;11538;48.884;8.696;2022-08-11T06:19:14;99174.41;;;18.89;50.67
22743;BME280;11538;48.884;8.696;2022-08-11T06:21:46;99176.56;;;18.96;50.93
22743;BME280;11538;48.884;8.696;2022-08-11T06:24:17;99177.59;;;19.04;50.54
22743;BME280;11538;48.884;8.696;2022-08-11T06:26:50;99176.78;;;19.16;50.57
22743;BME280;11538;48.884;8.696;2022-08-11T06:29:48;99181.81;;;19.26;50.31
22743;BME280;11538;48.884;8.696;2022-08-11T06:32:31;99179.00;;;19.38;49.83
22743;BME280;11538;48.884;8.696;2022-08-11T06:35:07;99178.50;;;19.49;49.44
22743;BME280;11538;48.884;8.696;2022-08-11T06:38:04;99179.97;;;19.58;49.26
22743;BME280;11538;48.884;8.696;2022-08-11T06:41:02;99179.91;;;19.71;48.90
22743;BME280;11538;48.884;8.696;2022-08-11T06:44:08;99177.16;;;19.87;48.63
22743;BME280;11538;48.884;8.696;2022-08-11T06:46:50;99175.91;;;19.97;48.68
22743;BME280;11538;48.884;8.696;2022-08-11T06:49:32;99166.22;;;20.03;48.45
22743;BME280;11538;48.884;8.696;2022-08-11T06:52:28;99164.19;;;20.16;48.10
22743;BME280;11538;48.884;8.696;2022-08-11T06:55:12;99171.22;;;20.29;47.78
22743;BME280;11538;48.884;8.696;2022-08-11T06:58:21;99169.50;;;20.41;47.87
22743;BME280;11538;48.884;8.696;2022-08-11T07:01:14;99170.75;;;20.59;47.35
22743;BME280;11538;48.884;8.696;2022-08-11T07:03:47;99173.47;;;20.75;46.82
22743;BME280;11538;48.884;8.696;2022-08-11T07:06:38;99171.06;;;20.90;46.70
22743;BME280;11538;48.884;8.696;2022-08-11T07:12:42;99166.88;;;21.16;45.59
22743;BME280;11538;48.884;8.696;2022-08-11T07:16:15;99168.78;;;21.31;45.63
22743;BME280;11538;48.884;8.696;2022-08-11T07:19:05;99165.09;;;21.43;44.95
22743;BME280;11538;48.884;8.696;2022-08-11T07:21:55;99161.78;;;21.57;44.56
22743;BME280;11538;48.884;8.696;2022-08-11T07:25:00;99169.59;;;21.71;44.29
22743;BME280;11538;48.884;8.696;2022-08-11T07:28:05;99163.59;;;21.89;43.73
22743;BME280;11538;48.884;8.696;2022-08-11T07:31:02;99168.28;;;22.08;43.55
22743;BME280;11538;48.884;8.696;2022-08-11T07:34:01;99165.44;;;22.28;42.88
22743;BME280;11538;48.884;8.696;2022-08-11T07:36:52;99163.31;;;22.44;42.60
22743;BME280;11538;48.884;8.696;2022-08-11T07:39:35;99151.41;;;22.63;42.35
22743;BME280;11538;48.884;8.696;2022-08-11T07:42:09;99156.41;;;22.81;41.73
22743;BME280;11538;48.884;8.696;2022-08-11T07:44:39;99148.72;;;22.98;41.38
22743;BME280;11538;48.884;8.696;2022-08-11T07:47:26;99151.69;;;23.16;40.93
22743;BME280;11538;48.884;8.696;2022-08-11T07:50:13;99138.88;;;23.31;40.45
22743;BME280;11538;48.884;8.696;2022-08-11T07:53:01;99145.81;;;23.51;40.42
22743;BME280;11538;48.884;8.696;2022-08-11T07:55:29;99142.44;;;23.69;39.94
22743;BME280;11538;48.884;8.696;2022-08-11T07:58:21;99145.03;;;23.89;39.62
22743;BME280;11538;48.884;8.696;2022-08-11T08:01:24;99144.44;;;24.06;39.34
22743;BME280;11538;48.884;8.696;2022-08-11T08:04:15;99145.38;;;24.25;39.51
22743;BME280;11538;48.884;8.696;2022-08-11T08:07:03;99143.53;;;24.44;38.40
22743;BME280;11538;48.884;8.696;2022-08-11T08:09:50;99139.72;;;24.66;38.45
22743;BME280;11538;48.884;8.696;2022-08-11T08:12:41;99135.53;;;24.91;37.83
22743;BME280;11538;48.884;8.696;2022-08-11T08:15:29;99143.53;;;25.10;37.39
22743;BME280;11538;48.884;8.696;2022-08-11T08:18:17;99141.66;;;25.36;36.34
22743;BME280;11538;48.884;8.696;2022-08-11T08:20:55;99143.72;;;25.54;35.96
22743;BME280;11538;48.884;8.696;2022-08-11T08:23:40;99146.53;;;25.76;36.48
22743;BME280;11538;48.884;8.696;2022-08-11T08:26:12;99154.91;;;25.97;36.06
22743;BME280;11538;48.884;8.696;2022-08-11T08:29:01;99152.56;;;26.18;35.51
22743;BME280;11538;48.884;8.696;2022-08-11T08:31:51;99151.38;;;26.33;35.47
22743;BME280;11538;48.884;8.696;2022-08-11T08:34:19;99153.72;;;26.46;35.60
22743;BME280;11538;48.884;8.696;2022-08-11T08:36:50;99156.91;;;26.62;35.02
22743;BME280;11538;48.884;8.696;2022-08-11T08:39:21;99143.75;;;26.81;34.70
22743;BME280;11538;48.884;8.696;2022-08-11T08:41:55;99152.47;;;26.97;35.13
22743;BME280;11538;48.884;8.696;2022-08-11T08:44:24;99150.81;;;27.14;34.81
22743;BME280;11538;48.884;8.696;2022-08-11T08:47:14;99154.31;;;27.37;34.24
22743;BME280;11538;48.884;8.696;2022-08-11T08:50:07;99163.81;;;27.50;34.73
22743;BME280;11538;48.884;8.696;2022-08-11T08:52:55;99162.91;;;27.71;35.00
22743;BME280;11538;48.884;8.696;2022-08-11T08:55:27;99160.03;;;27.86;32.81
22743;BME280;11538;48.884;8.696;2022-08-11T08:57:55;99156.78;;;27.95;33.45
22743;BME280;11538;48.884;8.696;2022-08-11T09:00:40;99163.84;;;28.10;33.21
22743;BME280;11538;48.884;8.696;2022-08-11T09:03:09;99163.81;;;28.17;33.13
22743;BME280;11538;48.884;8.696;2022-08-11T09:05:57;99160.16;;;28.28;33.19
22743;BME280;11538;48.884;8.696;2022-08-11T09:08:30;99166.78;;;28.41;32.78
22743;BME280;11538;48.884;8.696;2022-08-11T09:11:03;99160.31;;;28.52;32.07
22743;BME280;11538;48.884;8.696;2022-08-11T09:13:50;99157.47;;;28.59;31.66
22743;BME280;11538;48.884;8.696;2022-08-11T09:16:33;99154.00;;;28.48;31.82
22743;BME280;11538;48.884;8.696;2022-08-11T09:19:02;99156.91;;;28.75;31.97
22743;BME280;11538;48.884;8.696;2022-08-11T09:21:29;99167.22;;;28.82;31.72
22743;BME280;11538;48.884;8.696;2022-08-11T09:24:17;99164.66;;;28.98;30.37
22743;BME280;11538;48.884;8.696;2022-08-11T09:27:06;99159.66;;;29.17;32.13
22743;BME280;11538;48.884;8.696;2022-08-11T09:29:34;99158.66;;;29.35;30.88
22743;BME280;11538;48.884;8.696;2022-08-11T09:32:04;99152.19;;;29.41;31.28
22743;BME280;11538;48.884;8.696;2022-08-11T09:34:34;99158.59;;;29.42;31.48
22743;BME280;11538;48.884;8.696;2022-08-11T09:37:04;99167.16;;;29.55;30.00
22743;BME280;11538;48.884;8.696;2022-08-11T09:40:13;99145.19;;;29.57;30.79
22743;BME280;11538;48.884;8.696;2022-08-11T09:43:04;99159.28;;;29.77;30.04
22743;BME280;11538;48.884;8.696;2022-08-11T09:45:52;99152.81;;;29.84;29.52
22743;BME280;11538;48.884;8.696;2022-08-11T09:48:25;99145.38;;;30.01;29.07
22743;BME280;11538;48.884;8.696;2022-08-11T09:50:57;99148.16;;;30.01;29.58
22743;BME280;11538;48.884;8.696;2022-08-11T09:53:31;99149.88;;;30.18;29.65
22743;BME280;11538;48.884;8.696;2022-08-11T09:56:15;99147.06;;;30.18;30.00
22743;BME280;11538;48.884;8.696;2022-08-11T09:59:03;99136.81;;;30.35;27.65
22743;BME280;11538;48.884;8.696;2022-08-11T10:01:44;99142.72;;;30.65;26.15
22743;BME280;11538;48.884;8.696;2022-08-11T10:04:26;99137.91;;;30.86;25.24
22743;BME280;11538;48.884;8.696;2022-08-11T10:07:04;99142.25;;;31.07;26.33
22743;BME280;11538;48.884;8.696;2022-08-11T10:09:55;99135.53;;;31.04;27.63
22743;BME280;11538;48.884;8.696;2022-08-11T10:12:31;99137.75;;;31.13;28.01
22743;BME280;11538;48.884;8.696;2022-08-11T10:15:08;99132.41;;;31.23;28.32
22743;BME280;11538;48.884;8.696;2022-08-11T10:18:05;99131.38;;;31.33;26.83
22743;BME280;11538;48.884;8.696;2022-08-11T10:20:59;99112.38;;;31.41;26.81
22743;BME280;11538;48.884;8.696;2022-08-11T10:23:34;99117.28;;;31.53;26.91
22743;BME280;11538;48.884;8.696;2022-08-11T10:26:32;99119.91;;;31.80;26.02
22743;BME280;11538;48.884;8.696;2022-08-11T10:29:36;99117.03;;;32.01;25.53
22743;BME280;11538;48.884;8.696;2022-08-11T10:32:26;99115.81;;;31.85;27.60
22743;BME280;11538;48.884;8.696;2022-08-11T10:35:27;99110.09;;;31.89;27.16
22743;BME280;11538;48.884;8.696;2022-08-11T10:37:56;99106.16;;;32.03;25.49
22743;BME280;11538;48.884;8.696;2022-08-11T10:40:38;99103.84;;;32.14;25.83
22743;BME280;11538;48.884;8.696;2022-08-11T10:43:07;99101.75;;;32.35;26.35
22743;BME280;11538;48.884;8.696;2022-08-11T10:46:01;99099.59;;;32.56;24.52
22743;BME280;11538;48.884;8.696;2022-08-11T10:48:57;99104.31;;;32.59;23.23
22743;BME280;11538;48.884;8.696;2022-08-11T10:51:26;99110.38;;;32.57;23.95
22743;BME280;11538;48.884;8.696;2022-08-11T10:54:40;99092.19;;;32.62;26.28
22743;BME280;11538;48.884;8.696;2022-08-11T10:57:30;99085.13;;;32.57;25.50
22743;BME280;11538;48.884;8.696;2022-08-11T11:00:32;99088.16;;;32.92;24.66
22743;BME280;11538;48.884;8.696;2022-08-11T11:03:01;99080.56;;;33.19;23.38
22743;BME280;11538;48.884;8.696;2022-08-11T11:05:51;99071.03;;;33.55;23.14
22743;BME280;11538;48.884;8.696;2022-08-11T11:08:45;99085.97;;;33.78;23.06
22743;BME280;11538;48.884;8.696;2022-08-11T11:11:24;99080.56;;;33.83;21.12
22743;BME280;11538;48.884;8.696;2022-08-11T11:14:16;99078.97;;;33.95;23.08
22743;BME280;11538;48.884;8.696;2022-08-11T11:17:38;99079.09;;;33.92;22.66
22743;BME280;11538;48.884;8.696;2022-08-11T11:23:42;99059.00;;;34.38;24.19
22743;BME280;11538;48.884;8.696;2022-08-11T11:26:51;99072.63;;;34.75;21.65
22743;BME280;11538;48.884;8.696;2022-08-11T11:29:56;99057.09;;;35.24;20.29
22743;BME280;11538;48.884;8.696;2022-08-11T11:32:58;99071.75;;;35.41;20.05
22743;BME280;11538;48.884;8.696;2022-08-11T11:36:01;99076.53;;;35.63;20.05
22743;BME280;11538;48.884;8.696;2022-08-11T11:38:35;99067.81;;;35.89;18.89
22743;BME280;11538;48.884;8.696;2022-08-11T11:41:02;99056.75;;;36.22;18.95
22743;BME280;11538;48.884;8.696;2022-08-11T11:43:48;99040.25;;;36.49;18.66
22743;BME280;11538;48.884;8.696;2022-08-11T11:46:16;99047.72;;;36.89;18.41
22743;BME280;11538;48.884;8.696;2022-08-11T11:48:44;99053.53;;;37.38;18.91
22743;BME280;11538;48.884;8.696;2022-08-11T11:51:12;99044.00;;;37.59;17.13
22743;BME280;11538;48.884;8.696;2022-08-11T11:53:42;99043.53;;;37.27;17.50
22743;BME280;11538;48.884;8.696;2022-08-11T11:56:12;99045.56;;;37.60;17.71
22743;BME280;11538;48.884;8.696;2022-08-11T11:58:40;99037.94;;;37.52;17.32
22743;BME280;11538;48.884;8.696;2022-08-11T12:01:27;99040.66;;;37.37;17.27
22743;BME280;11538;48.884;8.696;2022-08-11T12:03:56;99038.56;;;37.80;16.58
22743;BME280;11538;48.884;8.696;2022-08-11T12:06:24;99040.84;;;38.15;17.04
22743;BME280;11538;48.884;8.696;2022-08-11T12:08:56;99041.25;;;38.38;16.58
22743;BME280;11538;48.884;8.696;2022-08-11T12:11:26;99037.09;;;38.49;16.59
22743;BME280;11538;48.884;8.696;2022-08-11T12:14:19;99032.06;;;38.28;16.03
22743;BME280;11538;48.884;8.696;2022-08-11T12:16:47;99027.28;;;37.95;16.24
22743;BME280;11538;48.884;8.696;2022-08-11T12:19:23;99031.38;;;38.18;16.65
22743;BME280;11538;48.884;8.696;2022-08-11T12:21:55;99029.19;;;38.68;17.51
22743;BME280;11538;48.884;8.696;2022-08-11T12:24:41;99025.28;;;38.95;15.71
22743;BME280;11538;48.884;8.696;2022-08-11T12:27:29;99011.78;;;39.05;15.66
22743;BME280;11538;48.884;8.696;2022-08-11T12:30:04;99013.34;;;38.76;15.98
22743;BME280;11538;48.884;8.696;2022-08-11T12:32:37;99017.06;;;38.97;15.46
22743;BME280;11538;48.884;8.696;2022-08-11T12:35:06;99013.84;;;38.89;15.81
22743;BME280;11538;48.884;8.696;2022-08-11T12:37:44;99020.75;;;39.03;15.27
22743;BME280;11538;48.884;8.696;2022-08-11T12:40:17;99007.41;;;39.40;15.36
22743;BME280;11538;48.884;8.696;2022-08-11T12:43:30;99005.06;;;39.38;15.26
22743;BME280;11538;48.884;8.696;2022-08-11T12:46:28;99001.75;;;39.60;15.10
22743;BME280;11538;48.884;8.696;2022-08-11T12:49:04;98997.56;;;39.76;15.08
22743;BME280;11538;48.884;8.696;2022-08-11T12:51:54;98981.38;;;40.03;14.72
22743;BME280;11538;48.884;8.696;2022-08-11T12:54:57;98989.41;;;39.84;14.51
22743;BME280;11538;48.884;8.696;2022-08-11T12:57:37;98996.28;;;39.57;14.49
22743;BME280;11538;48.884;8.696;2022-08-11T13:00:26;98987.09;;;39.83;14.66
22743;BME280;11538;48.884;8.696;2022-08-11T13:03:19;98980.25;;;39.95;14.44
22743;BME280;11538;48.884;8.696;2022-08-11T13:06:07;98988.97;;;39.91;14.47
22743;BME280;11538;48.884;8.696;2022-08-11T13:08:38;98980.66;;;39.67;14.41
22743;BME280;11538;48.884;8.696;2022-08-11T13:11:08;98985.03;;;39.83;14.62
22743;BME280;11538;48.884;8.696;2022-08-11T13:14:15;98976.41;;;39.77;14.45
22743;BME280;11538;48.884;8.696;2022-08-11T13:16:44;98971.50;;;39.99;14.14
22743;BME280;11538;48.884;8.696;2022-08-11T13:19:32;98959.94;;;40.02;13.82
22743;BME280;11538;48.884;8.696;2022-08-11T13:22:02;98946.91;;;39.48;14.25
22743;BME280;11538;48.884;8.696;2022-08-11T13:24:34;98960.31;;;39.89;14.11
22743;BME280;11538;48.884;8.696;2022-08-11T13:27:02;98953.66;;;40.19;13.85
22743;BME280;11538;48.884;8.696;2022-08-11T13:29:30;98951.75;;;40.10;13.97
22743;BME280;11538;48.884;8.696;2022-08-11T13:31:58;98946.19;;;39.95;13.84
22743;BME280;11538;48.884;8.696;2022-08-11T13:34:28;98956.75;;;39.95;14.00
22743;BME280;11538;48.884;8.696;2022-08-11T13:37:03;98944.47;;;40.03;13.90
22743;BME280;11538;48.884;8.696;2022-08-11T13:39:32;98947.13;;;40.13;13.89
22743;BME280;11538;48.884;8.696;2022-08-11T13:42:02;98945.00;;;40.34;13.63
22743;BME280;11538;48.884;8.696;2022-08-11T13:44:35;98936.38;;;40.22;13.47
22743;BME280;11538;48.884;8.696;2022-08-11T13:47:06;98941.38;;;40.07;13.75
22743;BME280;11538;48.884;8.696;2022-08-11T13:49:36;98938.06;;;40.09;13.97
22743;BME280;11538;48.884;8.696;2022-08-11T13:52:11;98944.31;;;39.71;13.89
22743;BME280;11538;48.884;8.696;2022-08-11T13:54:40;98930.44;;;39.53;14.13
22743;BME280;11538;48.884;8.696;2022-08-11T13:57:11;98916.09;;;39.41;14.22
22743;BME280;11538;48.884;8.696;2022-08-11T14:00:03;98914.84;;;39.42;14.51
22743;BME280;11538;48.884;8.696;2022-08-11T14:02:52;98913.00;;;39.39;14.46
22743;BME280;11538;48.884;8.696;2022-08-11T14:05:30;98909.72;;;39.46;14.48
22743;BME280;11538;48.884;8.696;2022-08-11T14:08:07;98914.25;;;39.59;13.90
22743;BME280;11538;48.884;8.696;2022-08-11T14:11:01;98913.38;;;39.32;14.02
22743;BME280;11538;48.884;8.696;2022-08-11T14:16:57;98898.78;;;39.18;13.94
22743;BME280;11538;48.884;8.696;2022-08-11T14:19:31;98901.97;;;39.26;13.81
22743;BME280;11538;48.884;8.696;2022-08-11T14:22:05;98902.88;;;39.17;14.08
22743;BME280;11538;48.884;8.696;2022-08-11T14:24:41;98889.00;;;38.84;14.28
22743;BME280;11538;48.884;8.696;2022-08-11T14:27:13;98894.63;;;38.63;14.38
22743;BME280;11538;48.884;8.696;2022-08-11T14:30:04;98889.75;;;38.64;14.49
22743;BME280;11538;48.884;8.696;2022-08-11T14:32:53;98891.22;;;38.59;14.60
22743;BME280;11538;48.884;8.696;2022-08-11T14:35:24;98886.16;;;38.48;14.84
22743;BME280;11538;48.884;8.696;2022-08-11T14:37:52;98890.41;;;38.28;15.05
22743;BME280;11538;48.884;8.696;2022-08-11T14:40:20;98880.88;;;38.26;14.61
22743;BME280;11538;48.884;8.696;2022-08-11T14:43:05;98863.47;;;38.18;14.41
22743;BME280;11538;48.884;8.696;2022-08-11T14:46:12;98872.25;;;37.90;14.70
22743;BME280;11538;48.884;8.696;2022-08-11T14:48:59;98857.06;;;37.24;14.71
22743;BME280;11538;48.884;8.696;2022-08-11T14:51:27;98855.91;;;37.30;15.26
22743;BME280;11538;48.884;8.696;2022-08-11T14:53:55;98866.63;;;37.51;15.19
22743;BME280;11538;48.884;8.696;2022-08-11T14:56:43;98866.63;;;37.51;14.67
22743;BME280;11538;48.884;8.696;2022-08-11T14:59:12;98861.31;;;37.43;14.83
22743;BME280;11538;48.884;8.696;2022-08-11T15:01:40;98857.00;;;37.33;14.93
22743;BME280;11538;48.884;8.696;2022-08-11T15:04:26;98865.13;;;37.16;15.35
22743;BME280;11538;48.884;8.696;2022-08-11T15:07:03;98848.84;;;36.77;15.52
22743;BME280;11538;48.884;8.696;2022-08-11T15:09:44;98858.28;;;36.74;15.73
22743;BME280;11538;48.884;8.696;2022-08-11T15:12:34;98852.94;;;36.76;15.15
22743;BME280;11538;48.884;8.696;2022-08-11T15:15:04;98845.47;;;36.64;15.28
22743;BME280;11538;48.884;8.696;2022-08-11T15:17:57;98853.97;;;36.54;15.58
22743;BME280;11538;48.884;8.696;2022-08-11T15:20:28;98844.00;;;36.35;15.47
22743;BME280;11538;48.884;8.696;2022-08-11T15:23:19;98844.97;;;36.22;15.96
22743;BME280;11538;48.884;8.696;2022-08-11T15:26:17;98828.41;;;35.96;16.23
22743;BME280;11538;48.884;8.696;2022-08-11T15:28:50;98843.97;;;35.73;15.87
22743;BME280;11538;48.884;8.696;2022-08-11T15:31:37;98830.94;;;35.48;16.19
22743;BME280;11538;48.884;8.696;2022-08-11T15:34:28;98825.84;;;34.87;17.10
22743;BME280;11538;48.884;8.696;2022-08-11T15:37:17;98813.25;;;34.28;17.47
22743;BME280;11538;48.884;8.696;2022-08-11T15:40:24;98818.94;;;33.83;17.83
22743;BME280;11538;48.884;8.696;2022-08-11T15:46:16;98819.44;;;33.11;18.62
22743;BME280;11538;48.884;8.696;2022-08-11T15:48:55;98821.47;;;32.98;18.73
22743;BME280;11538;48.884;8.696;2022-08-11T15:51:34;98820.63;;;32.88;18.69
22743;BME280;11538;48.884;8.696;2022-08-11T15:54:10;98810.03;;;32.79;18.80
22743;BME280;11538;48.884;8.696;2022-08-11T15:56:43;98811.84;;;32.73;18.95
22743;BME280;11538;48.884;8.696;2022-08-11T15:59:16;98805.03;;;32.61;18.93
22743;BME280;11538;48.884;8.696;2022-08-11T16:02:14;98803.88;;;32.46;18.97
22743;BME280;11538;48.884;8.696;2022-08-11T16:04:47;98808.94;;;32.38;19.31
22743;BME280;11538;48.884;8.696;2022-08-11T16:07:20;98806.91;;;32.26;18.96
22743;BME280;11538;48.884;8.696;2022-08-11T16:10:07;98802.72;;;32.04;19.01
22743;BME280;11538;48.884;8.696;2022-08-11T16:12:45;98804.28;;;32.05;19.56
22743;BME280;11538;48.884;8.696;2022-08-11T16:16:00;98798.69;;;31.92;19.72
22743;BME280;11538;48.884;8.696;2022-08-11T16:18:55;98801.91;;;31.91;19.71
22743;BME280;11538;48.884;8.696;2022-08-11T16:21:29;98790.47;;;31.85;19.32
22743;BME280;11538;48.884;8.696;2022-08-11T16:24:07;98794.50;;;31.84;20.27
22743;BME280;11538;48.884;8.696;2022-08-11T16:26:57;98790.78;;;31.74;20.79
22743;BME280;11538;48.884;8.696;2022-08-11T16:29:45;98795.22;;;31.72;20.63
22743;BME280;11538;48.884;8.696;2022-08-11T16:32:24;98787.81;;;31.65;20.40
22743;BME280;11538;48.884;8.696;2022-08-11T16:35:00;98795.19;;;31.59;20.00
22743;BME280;11538;48.884;8.696;2022-08-11T16:37:48;98779.34;;;31.52;20.20
22743;BME280;11538;48.884;8.696;2022-08-11T16:40:38;98782.69;;;31.47;20.18
22743;BME280;11538;48.884;8.696;2022-08-11T16:43:09;98792.53;;;31.39;19.82
22743;BME280;11538;48.884;8.696;2022-08-11T16:45:58;98782.53;;;31.25;20.27
22743;BME280;11538;48.884;8.696;2022-08-11T16:49:29;98787.44;;;31.20;20.04
22743;BME280;11538;48.884;8.696;2022-08-11T16:52:01;98787.56;;;31.13;20.54
22743;BME280;11538;48.884;8.696;2022-08-11T16:54:34;98788.63;;;31.03;20.43
22743;BME280;11538;48.884;8.696;2022-08-11T16:57:11;98778.84;;;30.95;20.58
22743;BME280;11538;48.884;8.696;2022-08-11T17:00:03;98790.56;;;30.89;20.53
22743;BME280;11538;48.884;8.696;2022-08-11T17:02:36;98790.34;;;30.84;20.33
22743;BME280;11538;48.884;8.696;2022-08-11T17:05:24;98792.78;;;30.82;20.20